sensor_id;sensor_type;location;lat;lon;timestamp;pressure;altitude;pressure_sealevel;temperature;humidity
61109;BME280;46995;55.740;37.402;2023-11-21T00:00:09;99050.03;;;-6.10;67.93
61109;BME280;46995;55.740;37.402;2023-11-21T00:02:41;99042.31;;;-6.10;65.68
61109;BME280;46995;55.740;37.402;2023-11-21T00:05:10;99039.19;;;-6.21;66.67
61109;BME280;46995;55.740;37.402;2023-11-21T00:07:37;99035.88;;;-6.25;67.21
61109;BME280;46995;55.740;37.402;2023-11-21T00:10:03;99045.78;;;-6.11;67.73
61109;BME280;46995;55.740;37.402;2023-11-21T00:12:30;99047.22;;;-6.01;66.57
61109;BME280;46995;55.740;37.402;2023-11-21T00:14:57;99047.06;;;-5.96;67.18
61109;BME280;46995;55.740;37.402;2023-11-21T00:17:23;99047.72;;;-5.88;66.92
61109;BME280;46995;55.740;37.402;2023-11-21T00:19:48;99046.38;;;-6.02;66.77
61109;BME280;46995;55.740;37.402;2023-11-21T00:22:14;99051.97;;;-6.18;66.81
61109;BME280;46995;55.740;37.402;2023-11-21T00:24:40;99048.56;;;-6.19;67.09
61109;BME280;46995;55.740;37.402;2023-11-21T00:27:05;99050.75;;;-6.05;67.27
61109;BME280;46995;55.740;37.402;2023-11-21T00:29:31;99043.63;;;-5.95;66.59
61109;BME280;46995;55.740;37.402;2023-11-21T00:31:56;99052.16;;;-5.93;66.97
61109;BME280;46995;55.740;37.402;2023-11-21T00:34:22;99039.16;;;-5.89;67.13
61109;BME280;46995;55.740;37.402;2023-11-21T00:36:47;99042.38;;;-5.82;67.14
61109;BME280;46995;55.740;37.402;2023-11-21T00:39:13;99040.34;;;-5.71;66.69
61109;BME280;46995;55.740;37.402;2023-11-21T00:41:39;99037.78;;;-5.71;65.93
61109;BME280;46995;55.740;37.402;2023-11-21T00:44:04;99048.00;;;-5.97;66.55
61109;BME280;46995;55.740;37.402;2023-11-21T00:46:31;99045.94;;;-6.17;66.77
61109;BME280;46995;55.740;37.402;2023-11-21T00:48:57;99042.72;;;-6.24;67.31
61109;BME280;46995;55.740;37.402;2023-11-21T00:51:23;99037.47;;;-6.21;67.50
61109;BME280;46995;55.740;37.402;2023-11-21T00:53:48;99038.28;;;-6.19;67.22
61109;BME280;46995;55.740;37.402;2023-11-21T00:56:14;99028.16;;;-6.25;66.73
61109;BME280;46995;55.740;37.402;2023-11-21T00:58:41;99036.59;;;-6.20;67.02
61109;BME280;46995;55.740;37.402;2023-11-21T01:01:12;99036.59;;;-6.20;66.93
61109;BME280;46995;55.740;37.402;2023-11-21T01:03:38;99033.31;;;-6.25;66.36
61109;BME280;46995;55.740;37.402;2023-11-21T01:06:03;99037.16;;;-6.41;66.67
61109;BME280;46995;55.740;37.402;2023-11-21T01:08:32;99037.47;;;-6.53;66.69
61109;BME280;46995;55.740;37.402;2023-11-21T01:10:58;99041.59;;;-6.48;66.90
61109;BME280;46995;55.740;37.402;2023-11-21T01:13:23;99037.25;;;-6.44;66.01
61109;BME280;46995;55.740;37.402;2023-11-21T01:15:53;99034.16;;;-6.58;66.76
61109;BME280;46995;55.740;37.402;2023-11-21T01:18:20;99041.16;;;-6.63;66.62
61109;BME280;46995;55.740;37.402;2023-11-21T01:20:46;99031.03;;;-6.69;65.57
61109;BME280;46995;55.740;37.402;2023-11-21T01:23:12;99038.00;;;-6.74;66.81
61109;BME280;46995;55.740;37.402;2023-11-21T01:25:38;99036.47;;;-6.81;66.13
61109;BME280;46995;55.740;37.402;2023-11-21T01:28:04;99041.91;;;-6.94;66.40
61109;BME280;46995;55.740;37.402;2023-11-21T01:30:30;99035.94;;;-6.96;66.80
61109;BME280;46995;55.740;37.402;2023-11-21T01:32:57;99044.50;;;-6.95;66.59
61109;BME280;46995;55.740;37.402;2023-11-21T01:35:23;99052.84;;;-6.86;66.62
61109;BME280;46995;55.740;37.402;2023-11-21T01:37:49;99050.31;;;-6.87;66.53
61109;BME280;46995;55.740;37.402;2023-11-21T01:40:14;99046.94;;;-6.91;65.93
61109;BME280;46995;55.740;37.402;2023-11-21T01:42:40;99042.63;;;-6.89;66.48
61109;BME280;46995;55.740;37.402;2023-11-21T01:45:06;99049.59;;;-6.94;66.23
61109;BME280;46995;55.740;37.402;2023-11-21T01:47:33;99059.22;;;-7.02;66.08
61109;BME280;46995;55.740;37.402;2023-11-21T01:49:59;99057.56;;;-7.06;66.17
61109;BME280;46995;55.740;37.402;2023-11-21T01:52:25;99059.38;;;-7.09;66.09
61109;BME280;46995;55.740;37.402;2023-11-21T01:54:51;99052.31;;;-7.00;65.97
61109;BME280;46995;55.740;37.402;2023-11-21T01:57:18;99053.00;;;-6.93;65.84
61109;BME280;46995;55.740;37.402;2023-11-21T01:59:44;99052.03;;;-6.88;65.46
61109;BME280;46995;55.740;37.402;2023-11-21T02:02:10;99052.88;;;-6.87;66.20
61109;BME280;46995;55.740;37.402;2023-11-21T02:04:37;99039.06;;;-6.83;66.27
61109;BME280;46995;55.740;37.402;2023-11-21T02:07:03;99039.16;;;-6.86;65.29
61109;BME280;46995;55.740;37.402;2023-11-21T02:09:31;99039.94;;;-6.82;66.17
61109;BME280;46995;55.740;37.402;2023-11-21T02:12:00;99041.47;;;-6.75;66.09
61109;BME280;46995;55.740;37.402;2023-11-21T02:14:26;99047.50;;;-6.78;65.97
61109;BME280;46995;55.740;37.402;2023-11-21T02:16:56;99048.34;;;-6.77;65.16
61109;BME280;46995;55.740;37.402;2023-11-21T02:19:26;99054.66;;;-6.91;64.66
61109;BME280;46995;55.740;37.402;2023-11-21T02:21:52;99055.84;;;-7.04;65.45
61109;BME280;46995;55.740;37.402;2023-11-21T02:24:21;99056.03;;;-7.13;66.03
61109;BME280;46995;55.740;37.402;2023-11-21T02:26:47;99053.28;;;-7.05;65.88
61109;BME280;46995;55.740;37.402;2023-11-21T02:29:13;99052.19;;;-6.95;66.01
61109;BME280;46995;55.740;37.402;2023-11-21T02:31:39;99062.34;;;-6.91;65.63
61109;BME280;46995;55.740;37.402;2023-11-21T02:34:16;99060.47;;;-6.82;65.71
61109;BME280;46995;55.740;37.402;2023-11-21T02:36:42;99051.06;;;-6.83;64.32
61109;BME280;46995;55.740;37.402;2023-11-21T02:39:08;99049.50;;;-6.91;65.49
61109;BME280;46995;55.740;37.402;2023-11-21T02:41:34;99051.28;;;-6.93;65.58
61109;BME280;46995;55.740;37.402;2023-11-21T02:44:00;99064.19;;;-6.96;65.26
61109;BME280;46995;55.740;37.402;2023-11-21T02:46:25;99059.41;;;-7.11;65.50
61109;BME280;46995;55.740;37.402;2023-11-21T02:48:51;99064.63;;;-7.14;65.81
61109;BME280;46995;55.740;37.402;2023-11-21T02:51:19;99063.88;;;-7.19;65.89
61109;BME280;46995;55.740;37.402;2023-11-21T02:53:44;99067.22;;;-7.17;65.83
61109;BME280;46995;55.740;37.402;2023-11-21T02:56:12;99074.75;;;-7.08;65.05
61109;BME280;46995;55.740;37.402;2023-11-21T02:58:37;99069.72;;;-7.12;64.49
61109;BME280;46995;55.740;37.402;2023-11-21T03:01:03;99086.31;;;-7.29;65.33
61109;BME280;46995;55.740;37.402;2023-11-21T03:03:30;99071.97;;;-7.37;65.07
61109;BME280;46995;55.740;37.402;2023-11-21T03:05:56;99075.22;;;-7.29;65.21
61109;BME280;46995;55.740;37.402;2023-11-21T03:08:22;99076.63;;;-7.16;65.61
61109;BME280;46995;55.740;37.402;2023-11-21T03:10:47;99074.19;;;-7.22;64.74
61109;BME280;46995;55.740;37.402;2023-11-21T03:13:13;99091.63;;;-7.38;64.98
61109;BME280;46995;55.740;37.402;2023-11-21T03:15:38;99082.53;;;-7.52;64.13
61109;BME280;46995;55.740;37.402;2023-11-21T03:18:04;99083.47;;;-7.55;65.09
61109;BME280;46995;55.740;37.402;2023-11-21T03:20:30;99090.81;;;-7.38;65.31
61109;BME280;46995;55.740;37.402;2023-11-21T03:22:56;99085.47;;;-7.28;65.38
61109;BME280;46995;55.740;37.402;2023-11-21T03:25:21;99079.28;;;-7.20;65.09
61109;BME280;46995;55.740;37.402;2023-11-21T03:27:49;99081.06;;;-7.22;65.07
61109;BME280;46995;55.740;37.402;2023-11-21T03:30:14;99084.69;;;-7.33;65.38
61109;BME280;46995;55.740;37.402;2023-11-21T03:32:42;99089.25;;;-7.45;64.75
61109;BME280;46995;55.740;37.402;2023-11-21T03:35:07;99086.56;;;-7.39;65.48
61109;BME280;46995;55.740;37.402;2023-11-21T03:37:33;99093.97;;;-7.27;65.19
61109;BME280;46995;55.740;37.402;2023-11-21T03:40:00;99085.28;;;-7.20;65.09
61109;BME280;46995;55.740;37.402;2023-11-21T03:42:25;99096.38;;;-7.19;64.70
61109;BME280;46995;55.740;37.402;2023-11-21T03:44:51;99097.44;;;-7.28;65.11
61109;BME280;46995;55.740;37.402;2023-11-21T03:47:17;99097.44;;;-7.28;65.40
61109;BME280;46995;55.740;37.402;2023-11-21T03:49:44;99094.63;;;-7.17;65.57
61109;BME280;46995;55.740;37.402;2023-11-21T03:52:13;99095.06;;;-6.99;65.36
61109;BME280;46995;55.740;37.402;2023-11-21T03:54:39;99097.25;;;-6.83;65.30
61109;BME280;46995;55.740;37.402;2023-11-21T03:57:05;99085.25;;;-6.81;65.01
61109;BME280;46995;55.740;37.402;2023-11-21T03:59:31;99093.00;;;-6.85;65.28
61109;BME280;46995;55.740;37.402;2023-11-21T04:01:57;99087.03;;;-6.85;65.60
61109;BME280;46995;55.740;37.402;2023-11-21T04:04:22;99087.25;;;-6.94;65.28
61109;BME280;46995;55.740;37.402;2023-11-21T04:06:48;99096.81;;;-7.01;65.84
61109;BME280;46995;55.740;37.402;2023-11-21T04:09:14;99095.78;;;-6.94;65.97
61109;BME280;46995;55.740;37.402;2023-11-21T04:11:39;99099.78;;;-6.80;65.78
61109;BME280;46995;55.740;37.402;2023-11-21T04:14:05;99097.28;;;-6.85;65.55
61109;BME280;46995;55.740;37.402;2023-11-21T04:16:30;99091.53;;;-6.95;65.60
61109;BME280;46995;55.740;37.402;2023-11-21T04:18:56;99087.13;;;-6.90;65.84
61109;BME280;46995;55.740;37.402;2023-11-21T04:21:22;99096.16;;;-6.73;65.79
61109;BME280;46995;55.740;37.402;2023-11-21T04:23:49;99091.75;;;-6.68;64.88
61109;BME280;46995;55.740;37.402;2023-11-21T04:26:16;99092.63;;;-6.68;65.98
61109;BME280;46995;55.740;37.402;2023-11-21T04:28:42;99096.03;;;-6.67;65.79
61109;BME280;46995;55.740;37.402;2023-11-21T04:31:07;99102.09;;;-6.70;65.51
61109;BME280;46995;55.740;37.402;2023-11-21T04:33:33;99102.16;;;-6.73;65.68
61109;BME280;46995;55.740;37.402;2023-11-21T04:35:58;99101.59;;;-6.86;65.47
61109;BME280;46995;55.740;37.402;2023-11-21T04:38:24;99114.06;;;-7.07;65.26
61109;BME280;46995;55.740;37.402;2023-11-21T04:40:50;99105.91;;;-7.26;65.88
61109;BME280;46995;55.740;37.402;2023-11-21T04:43:15;99120.63;;;-7.34;66.16
61109;BME280;46995;55.740;37.402;2023-11-21T04:45:41;99112.16;;;-7.38;65.93
61109;BME280;46995;55.740;37.402;2023-11-21T04:48:07;99124.22;;;-7.43;66.10
61109;BME280;46995;55.740;37.402;2023-11-21T04:50:33;99114.03;;;-7.46;66.28
61109;BME280;46995;55.740;37.402;2023-11-21T04:52:59;99127.72;;;-7.45;66.20
61109;BME280;46995;55.740;37.402;2023-11-21T04:55:25;99125.25;;;-7.51;65.92
61109;BME280;46995;55.740;37.402;2023-11-21T04:57:53;99126.22;;;-7.57;66.14
61109;BME280;46995;55.740;37.402;2023-11-21T05:00:19;99132.31;;;-7.62;66.44
61109;BME280;46995;55.740;37.402;2023-11-21T05:02:45;99140.19;;;-7.70;66.45
61109;BME280;46995;55.740;37.402;2023-11-21T05:05:11;99151.38;;;-7.76;66.14
61109;BME280;46995;55.740;37.402;2023-11-21T05:07:37;99146.31;;;-7.79;66.57
61109;BME280;46995;55.740;37.402;2023-11-21T05:10:04;99141.28;;;-7.85;66.55
61109;BME280;46995;55.740;37.402;2023-11-21T05:12:33;99148.22;;;-7.90;66.25
61109;BME280;46995;55.740;37.402;2023-11-21T05:15:02;99152.44;;;-7.86;66.69
61109;BME280;46995;55.740;37.402;2023-11-21T05:17:33;99150.66;;;-7.82;66.43
61109;BME280;46995;55.740;37.402;2023-11-21T05:19:59;99159.88;;;-7.74;66.43
61109;BME280;46995;55.740;37.402;2023-11-21T05:22:28;99154.84;;;-7.80;65.97
61109;BME280;46995;55.740;37.402;2023-11-21T05:24:54;99153.28;;;-7.87;66.37
61109;BME280;46995;55.740;37.402;2023-11-21T05:27:20;99144.75;;;-7.86;66.52
61109;BME280;46995;55.740;37.402;2023-11-21T05:29:45;99139.53;;;-7.83;66.29
61109;BME280;46995;55.740;37.402;2023-11-21T05:32:11;99135.19;;;-7.79;66.40
61109;BME280;46995;55.740;37.402;2023-11-21T05:34:37;99135.09;;;-7.73;66.23
61109;BME280;46995;55.740;37.402;2023-11-21T05:37:03;99142.56;;;-7.62;66.29
61109;BME280;46995;55.740;37.402;2023-11-21T05:39:30;99137.63;;;-7.72;66.27
61109;BME280;46995;55.740;37.402;2023-11-21T05:41:56;99134.41;;;-7.83;66.69
61109;BME280;46995;55.740;37.402;2023-11-21T05:44:23;99132.03;;;-7.90;67.96
61109;BME280;46995;55.740;37.402;2023-11-21T05:46:49;99135.38;;;-7.87;67.29
61109;BME280;46995;55.740;37.402;2023-11-21T05:49:15;99143.06;;;-7.87;66.92
61109;BME280;46995;55.740;37.402;2023-11-21T05:51:41;99139.75;;;-7.93;66.89
61109;BME280;46995;55.740;37.402;2023-11-21T05:54:07;99138.88;;;-7.92;66.89
61109;BME280;46995;55.740;37.402;2023-11-21T05:56:33;99143.91;;;-7.86;67.06
61109;BME280;46995;55.740;37.402;2023-11-21T05:58:59;99138.59;;;-7.79;67.33
61109;BME280;46995;55.740;37.402;2023-11-21T06:01:25;99148.72;;;-7.69;67.70
61109;BME280;46995;55.740;37.402;2023-11-21T06:03:53;99145.84;;;-7.54;67.01
61109;BME280;46995;55.740;37.402;2023-11-21T06:06:19;99145.66;;;-7.45;66.56
61109;BME280;46995;55.740;37.402;2023-11-21T06:08:48;99147.28;;;-7.43;66.69
61109;BME280;46995;55.740;37.402;2023-11-21T06:11:14;99155.84;;;-7.42;66.56
61109;BME280;46995;55.740;37.402;2023-11-21T06:13:40;99154.28;;;-7.49;66.84
61109;BME280;46995;55.740;37.402;2023-11-21T06:16:05;99158.59;;;-7.51;66.98
61109;BME280;46995;55.740;37.402;2023-11-21T06:18:31;99169.69;;;-7.49;67.00
61109;BME280;46995;55.740;37.402;2023-11-21T06:20:56;99176.59;;;-7.54;66.64
61109;BME280;46995;55.740;37.402;2023-11-21T06:23:23;99168.91;;;-7.54;66.74
61109;BME280;46995;55.740;37.402;2023-11-21T06:25:49;99166.34;;;-7.54;66.76
61109;BME280;46995;55.740;37.402;2023-11-21T06:28:14;99163.72;;;-7.51;66.62
61109;BME280;46995;55.740;37.402;2023-11-21T06:30:43;99168.00;;;-7.53;66.69
61109;BME280;46995;55.740;37.402;2023-11-21T06:33:09;99163.72;;;-7.51;66.75
61109;BME280;46995;55.740;37.402;2023-11-21T06:35:35;99161.69;;;-7.36;66.95
61109;BME280;46995;55.740;37.402;2023-11-21T06:38:01;99155.53;;;-7.27;66.35
61109;BME280;46995;55.740;37.402;2023-11-21T06:40:28;99162.97;;;-7.15;66.58
61109;BME280;46995;55.740;37.402;2023-11-21T06:42:53;99156.78;;;-7.06;66.27
61109;BME280;46995;55.740;37.402;2023-11-21T06:45:19;99159.53;;;-7.14;65.63
61109;BME280;46995;55.740;37.402;2023-11-21T06:47:45;99175.91;;;-7.19;66.13
61109;BME280;46995;55.740;37.402;2023-11-21T06:50:11;99158.28;;;-7.36;66.35
61109;BME280;46995;55.740;37.402;2023-11-21T06:52:37;99176.00;;;-7.24;67.00
61109;BME280;46995;55.740;37.402;2023-11-21T06:55:02;99178.25;;;-7.09;67.63
61109;BME280;46995;55.740;37.402;2023-11-21T06:57:29;99180.69;;;-7.03;67.06
61109;BME280;46995;55.740;37.402;2023-11-21T06:59:55;99177.19;;;-7.00;67.54
61109;BME280;46995;55.740;37.402;2023-11-21T07:02:22;99168.66;;;-7.01;67.81
61109;BME280;46995;55.740;37.402;2023-11-21T07:04:48;99172.25;;;-7.08;70.01
61109;BME280;46995;55.740;37.402;2023-11-21T07:07:13;99177.41;;;-7.11;68.94
61109;BME280;46995;55.740;37.402;2023-11-21T07:09:39;99169.69;;;-7.09;68.85
61109;BME280;46995;55.740;37.402;2023-11-21T07:12:05;99167.84;;;-7.03;69.75
61109;BME280;46995;55.740;37.402;2023-11-21T07:14:33;99176.28;;;-6.96;68.40
61109;BME280;46995;55.740;37.402;2023-11-21T07:16:59;99180.34;;;-6.88;67.82
61109;BME280;46995;55.740;37.402;2023-11-21T07:19:24;99181.13;;;-6.84;67.03
61109;BME280;46995;55.740;37.402;2023-11-21T07:21:50;99181.13;;;-6.84;67.85
61109;BME280;46995;55.740;37.402;2023-11-21T07:24:16;99180.22;;;-6.81;67.93
61109;BME280;46995;55.740;37.402;2023-11-21T07:26:42;99179.97;;;-6.71;66.75
61109;BME280;46995;55.740;37.402;2023-11-21T07:29:08;99182.47;;;-6.68;67.23
61109;BME280;46995;55.740;37.402;2023-11-21T07:31:33;99180.63;;;-6.63;66.70
61109;BME280;46995;55.740;37.402;2023-11-21T07:34:03;99182.66;;;-6.75;66.54
61109;BME280;46995;55.740;37.402;2023-11-21T07:36:29;99186.47;;;-6.95;66.43
61109;BME280;46995;55.740;37.402;2023-11-21T07:38:54;99179.72;;;-6.99;66.89
61109;BME280;46995;55.740;37.402;2023-11-21T07:41:20;99175.56;;;-7.03;66.87
61109;BME280;46995;55.740;37.402;2023-11-21T07:43:46;99178.78;;;-6.95;66.90
61109;BME280;46995;55.740;37.402;2023-11-21T07:46:12;99180.59;;;-7.00;66.34
61109;BME280;46995;55.740;37.402;2023-11-21T07:48:38;99184.78;;;-6.96;66.54
61109;BME280;46995;55.740;37.402;2023-11-21T07:51:04;99185.47;;;-6.88;66.90
61109;BME280;46995;55.740;37.402;2023-11-21T07:53:31;99189.69;;;-6.85;66.22
61109;BME280;46995;55.740;37.402;2023-11-21T07:55:57;99187.44;;;-6.99;65.24
61109;BME280;46995;55.740;37.402;2023-11-21T07:58:23;99185.72;;;-6.98;66.94
61109;BME280;46995;55.740;37.402;2023-11-21T08:00:49;99185.53;;;-6.91;70.34
61109;BME280;46995;55.740;37.402;2023-11-21T08:03:15;99182.03;;;-6.87;69.21
61109;BME280;46995;55.740;37.402;2023-11-21T08:05:41;99189.84;;;-6.91;69.05
61109;BME280;46995;55.740;37.402;2023-11-21T08:08:07;99186.34;;;-6.89;68.58
61109;BME280;46995;55.740;37.402;2023-11-21T08:10:33;99173.47;;;-6.86;67.68
61109;BME280;46995;55.740;37.402;2023-11-21T08:12:58;99180.13;;;-6.78;67.39
61109;BME280;46995;55.740;37.402;2023-11-21T08:15:24;99174.88;;;-6.72;66.69
61109;BME280;46995;55.740;37.402;2023-11-21T08:17:49;99172.47;;;-6.80;66.86
61109;BME280;46995;55.740;37.402;2023-11-21T08:20:15;99180.22;;;-6.81;66.61
61109;BME280;46995;55.740;37.402;2023-11-21T08:22:43;99174.25;;;-6.83;70.69
61109;BME280;46995;55.740;37.402;2023-11-21T08:25:09;99180.47;;;-6.94;72.59
61109;BME280;46995;55.740;37.402;2023-11-21T08:27:34;99171.94;;;-6.94;70.18
61109;BME280;46995;55.740;37.402;2023-11-21T08:30:00;99166.78;;;-6.93;72.09
61109;BME280;46995;55.740;37.402;2023-11-21T08:32:26;99170.13;;;-6.91;71.69
61109;BME280;46995;55.740;37.402;2023-11-21T08:34:52;99164.00;;;-6.83;71.77
61109;BME280;46995;55.740;37.402;2023-11-21T08:37:17;99168.28;;;-6.84;71.24
61109;BME280;46995;55.740;37.402;2023-11-21T08:39:44;99165.06;;;-6.94;72.42
61109;BME280;46995;55.740;37.402;2023-11-21T08:42:10;99164.22;;;-6.93;71.11
61109;BME280;46995;55.740;37.402;2023-11-21T08:44:36;99170.09;;;-6.88;70.46
61109;BME280;46995;55.740;37.402;2023-11-21T08:47:04;99158.03;;;-6.84;70.77
61109;BME280;46995;55.740;37.402;2023-11-21T08:49:30;99156.28;;;-6.83;69.84
61109;BME280;46995;55.740;37.402;2023-11-21T08:51:56;99168.34;;;-6.86;68.84
61109;BME280;46995;55.740;37.402;2023-11-21T08:54:23;99165.00;;;-6.91;68.67
61109;BME280;46995;55.740;37.402;2023-11-21T08:56:49;99165.94;;;-6.93;68.54
61109;BME280;46995;55.740;37.402;2023-11-21T08:59:15;99165.84;;;-6.90;69.04
61109;BME280;46995;55.740;37.402;2023-11-21T09:01:41;99176.97;;;-6.90;69.62
61109;BME280;46995;55.740;37.402;2023-11-21T09:04:07;99174.44;;;-6.91;69.98
61109;BME280;46995;55.740;37.402;2023-11-21T09:06:33;99171.97;;;-6.96;74.08
61109;BME280;46995;55.740;37.402;2023-11-21T09:08:59;99175.25;;;-6.91;73.94
61109;BME280;46995;55.740;37.402;2023-11-21T09:11:24;99186.31;;;-6.86;72.80
61109;BME280;46995;55.740;37.402;2023-11-21T09:13:52;99175.84;;;-6.78;71.69
61109;BME280;46995;55.740;37.402;2023-11-21T09:16:18;99185.81;;;-6.64;69.82
61109;BME280;46995;55.740;37.402;2023-11-21T09:18:44;99183.22;;;-6.64;69.18
61109;BME280;46995;55.740;37.402;2023-11-21T09:21:10;99184.94;;;-6.63;68.86
61109;BME280;46995;55.740;37.402;2023-11-21T09:23:36;99183.03;;;-6.55;68.61
61109;BME280;46995;55.740;37.402;2023-11-21T09:26:01;99184.66;;;-6.51;68.26
61109;BME280;46995;55.740;37.402;2023-11-21T09:28:27;99185.38;;;-6.45;69.44
61109;BME280;46995;55.740;37.402;2023-11-21T09:30:53;99185.13;;;-6.34;68.85
61109;BME280;46995;55.740;37.402;2023-11-21T09:33:18;99191.91;;;-6.33;67.45
61109;BME280;46995;55.740;37.402;2023-11-21T09:35:44;99184.44;;;-6.42;67.66
61109;BME280;46995;55.740;37.402;2023-11-21T09:38:10;99173.31;;;-6.43;67.83
61109;BME280;46995;55.740;37.402;2023-11-21T09:40:36;99184.22;;;-6.33;68.17
61109;BME280;46995;55.740;37.402;2023-11-21T09:43:05;99180.63;;;-6.26;67.11
61109;BME280;46995;55.740;37.402;2023-11-21T09:45:36;99180.38;;;-6.17;67.75
61109;BME280;46995;55.740;37.402;2023-11-21T09:48:04;99186.09;;;-6.04;67.01
61109;BME280;46995;55.740;37.402;2023-11-21T09:50:31;99190.28;;;-6.02;66.79
61109;BME280;46995;55.740;37.402;2023-11-21T09:53:13;99182.84;;;-6.12;66.84
61109;BME280;46995;55.740;37.402;2023-11-21T09:55:46;99193.59;;;-6.32;67.40
61109;BME280;46995;55.740;37.402;2023-11-21T09:58:15;99192.13;;;-6.40;68.20
61109;BME280;46995;55.740;37.402;2023-11-21T10:00:42;99203.22;;;-6.38;68.20
61109;BME280;46995;55.740;37.402;2023-11-21T10:03:09;99198.22;;;-6.46;67.35
61109;BME280;46995;55.740;37.402;2023-11-21T10:05:35;99210.25;;;-6.48;67.54
61109;BME280;46995;55.740;37.402;2023-11-21T10:08:01;99203.47;;;-6.51;67.01
61109;BME280;46995;55.740;37.402;2023-11-21T10:10:27;99207.97;;;-6.60;66.07
61109;BME280;46995;55.740;37.402;2023-11-21T10:12:57;99209.75;;;-6.64;66.33
61109;BME280;46995;55.740;37.402;2023-11-21T10:15:27;99214.97;;;-6.67;68.38
61109;BME280;46995;55.740;37.402;2023-11-21T10:17:53;99202.25;;;-6.71;66.58
61109;BME280;46995;55.740;37.402;2023-11-21T10:20:20;99200.28;;;-6.60;67.07
61109;BME280;46995;55.740;37.402;2023-11-21T10:22:46;99210.25;;;-6.48;65.95
61109;BME280;46995;55.740;37.402;2023-11-21T10:25:12;99219.50;;;-6.39;66.62
61109;BME280;46995;55.740;37.402;2023-11-21T10:27:47;99211.41;;;-6.23;66.63
61109;BME280;46995;55.740;37.402;2023-11-21T10:30:12;99218.72;;;-6.08;66.70
61109;BME280;46995;55.740;37.402;2023-11-21T10:32:38;99212.44;;;-5.96;66.63
61109;BME280;46995;55.740;37.402;2023-11-21T10:35:06;99212.47;;;-5.97;66.00
61109;BME280;46995;55.740;37.402;2023-11-21T10:37:35;99212.78;;;-6.10;65.72
61109;BME280;46995;55.740;37.402;2023-11-21T10:40:02;99203.56;;;-6.18;65.69
61109;BME280;46995;55.740;37.402;2023-11-21T10:42:28;99200.41;;;-6.29;65.85
61109;BME280;46995;55.740;37.402;2023-11-21T10:44:54;99203.88;;;-6.32;66.16
61109;BME280;46995;55.740;37.402;2023-11-21T10:47:20;99202.09;;;-6.28;66.13
61109;BME280;46995;55.740;37.402;2023-11-21T10:49:51;99199.47;;;-6.27;66.30
61109;BME280;46995;55.740;37.402;2023-11-21T10:52:21;99205.16;;;-6.13;66.68
61109;BME280;46995;55.740;37.402;2023-11-21T10:54:47;99205.66;;;-5.98;66.38
61109;BME280;46995;55.740;37.402;2023-11-21T10:57:16;99207.25;;;-5.94;66.60
61109;BME280;46995;55.740;37.402;2023-11-21T10:59:42;99207.19;;;-5.91;66.14
61109;BME280;46995;55.740;37.402;2023-11-21T11:02:24;99210.47;;;-5.86;65.88
61109;BME280;46995;55.740;37.402;2023-11-21T11:04:53;99205.31;;;-5.86;66.47
61109;BME280;46995;55.740;37.402;2023-11-21T11:07:21;99206.13;;;-5.86;66.70
61109;BME280;46995;55.740;37.402;2023-11-21T11:09:48;99213.75;;;-5.81;66.77
61109;BME280;46995;55.740;37.402;2023-11-21T11:12:14;99213.81;;;-5.84;67.07
61109;BME280;46995;55.740;37.402;2023-11-21T11:14:40;99214.00;;;-5.90;67.74
61109;BME280;46995;55.740;37.402;2023-11-21T11:17:06;99214.31;;;-6.03;67.31
61109;BME280;46995;55.740;37.402;2023-11-21T11:19:34;99216.31;;;-6.14;67.03
61109;BME280;46995;55.740;37.402;2023-11-21T11:22:05;99224.91;;;-6.15;67.70
61109;BME280;46995;55.740;37.402;2023-11-21T11:35:20;99244.16;;;-6.71;67.74
61109;BME280;46995;55.740;37.402;2023-11-21T11:37:50;99233.16;;;-6.77;67.77
61109;BME280;46995;55.740;37.402;2023-11-21T11:40:16;99228.03;;;-6.77;66.84
61109;BME280;46995;55.740;37.402;2023-11-21T11:42:58;99237.25;;;-6.69;66.66
61109;BME280;46995;55.740;37.402;2023-11-21T11:45:33;99247.50;;;-6.67;66.62
61109;BME280;46995;55.740;37.402;2023-11-21T11:48:02;99239.94;;;-6.73;66.84
61109;BME280;46995;55.740;37.402;2023-11-21T11:50:28;99236.34;;;-6.65;66.25
61109;BME280;46995;55.740;37.402;2023-11-21T11:53:12;99252.28;;;-6.51;65.79
61109;BME280;46995;55.740;37.402;2023-11-21T11:55:38;99244.53;;;-6.49;65.98
61109;BME280;46995;55.740;37.402;2023-11-21T11:58:04;99243.09;;;-6.62;64.97
61109;BME280;46995;55.740;37.402;2023-11-21T12:02:59;99240.06;;;-6.79;67.45
61109;BME280;46995;55.740;37.402;2023-11-21T12:05:28;99247.84;;;-6.84;67.67
61109;BME280;46995;55.740;37.402;2023-11-21T12:07:55;99257.22;;;-6.81;68.21
61109;BME280;46995;55.740;37.402;2023-11-21T12:10:29;99252.84;;;-6.76;68.35
61109;BME280;46995;55.740;37.402;2023-11-21T12:12:56;99250.19;;;-6.73;68.68
61109;BME280;46995;55.740;37.402;2023-11-21T12:15:23;99246.69;;;-6.69;69.73
61109;BME280;46995;55.740;37.402;2023-11-21T12:17:49;99254.25;;;-6.63;68.22
61109;BME280;46995;55.740;37.402;2023-11-21T12:20:15;99260.22;;;-6.61;67.33
61109;BME280;46995;55.740;37.402;2023-11-21T12:22:49;99256.88;;;-6.65;67.11
61109;BME280;46995;55.740;37.402;2023-11-21T12:25:16;99255.31;;;-6.73;67.42
61109;BME280;46995;55.740;37.402;2023-11-21T12:27:44;99263.09;;;-6.76;67.37
61109;BME280;46995;55.740;37.402;2023-11-21T12:30:11;99268.34;;;-6.81;67.08
61109;BME280;46995;55.740;37.402;2023-11-21T12:32:39;99257.16;;;-6.78;66.69
61109;BME280;46995;55.740;37.402;2023-11-21T12:35:05;99270.84;;;-6.79;66.52
61109;BME280;46995;55.740;37.402;2023-11-21T12:37:31;99269.97;;;-6.77;65.80
61109;BME280;46995;55.740;37.402;2023-11-21T12:39:57;99275.13;;;-6.80;65.85
61109;BME280;46995;55.740;37.402;2023-11-21T12:42:23;99281.19;;;-6.82;65.87
61109;BME280;46995;55.740;37.402;2023-11-21T12:45:06;99277.69;;;-6.78;65.95
61109;BME280;46995;55.740;37.402;2023-11-21T12:47:33;99282.81;;;-6.78;65.91
61109;BME280;46995;55.740;37.402;2023-11-21T12:50:01;99284.50;;;-6.77;65.86
61109;BME280;46995;55.740;37.402;2023-11-21T12:52:29;99286.13;;;-6.73;66.07
61109;BME280;46995;55.740;37.402;2023-11-21T12:54:55;99276.84;;;-6.79;65.71
61109;BME280;46995;55.740;37.402;2023-11-21T12:57:25;99274.25;;;-6.79;65.84
61109;BME280;46995;55.740;37.402;2023-11-21T12:59:52;99271.69;;;-6.77;65.99